Time;durP1;ratioP1;P1;durP2;ratioP2;P2;SDS_P1;SDS_P2;PMS_P1;PMS_P2;Temp;Humidity;BMP_temperature;BMP_pressure;BME280_temperature;BME280_humidity;BME280_pressure;Samples;Min_cycle;Max_cycle;Signal;HPM_P1;HPM_P2
2022/03/10 00:02:09;;;;;;;3.00;2.70;;;15.30;46.10;;;;;;5095969;28;20450;-19
2022/03/10 00:04:38;;;;;;;3.00;2.33;;;15.30;46.50;;;;;;5096354;28;20242;-22
2022/03/10 00:07:05;;;;;;;3.00;2.50;;;15.30;46.20;;;;;;5095996;28;20182;-21
2022/03/10 00:09:32;;;;;;;2.70;2.50;;;15.30;46.10;;;;;;5096370;28;20225;-18
2022/03/10 00:11:58;;;;;;;3.23;2.60;;;15.30;46.10;;;;;;5094698;28;20171;-19
2022/03/10 00:14:24;;;;;;;3.10;2.53;;;15.30;46.20;;;;;;5095795;28;20577;-20
2022/03/10 00:16:50;;;;;;;3.00;2.40;;;15.30;46.20;;;;;;5095217;28;20266;-20
2022/03/10 00:19:16;;;;;;;2.80;2.50;;;15.20;46.20;;;;;;5095096;28;20171;-19
2022/03/10 00:21:43;;;;;;;2.60;2.40;;;15.20;46.20;;;;;;5095189;28;20170;-19
2022/03/10 00:24:09;;;;;;;3.43;2.50;;;15.20;46.20;;;;;;5095904;28;20171;-21
2022/03/10 00:26:37;;;;;;;2.73;2.33;;;15.20;46.20;;;;;;5096738;28;20178;-19
2022/03/10 00:29:03;;;;;;;2.67;2.47;;;15.20;46.20;;;;;;5094770;28;20210;-19
2022/03/10 00:31:28;;;;;;;2.40;2.20;;;15.20;46.20;;;;;;5096025;28;20240;-18
2022/03/10 00:33:54;;;;;;;2.50;2.30;;;15.20;46.20;;;;;;5095432;28;20176;-21
2022/03/10 00:36:20;;;;;;;2.67;2.13;;;15.20;46.20;;;;;;5095284;28;20574;-20
2022/03/10 00:38:45;;;;;;;2.50;2.30;;;15.20;46.20;;;;;;5094215;28;20181;-21
2022/03/10 00:41:11;;;;;;;2.40;2.20;;;15.20;46.20;;;;;;5093989;28;20174;-19
2022/03/10 00:43:37;;;;;;;2.60;2.33;;;15.20;46.20;;;;;;5094439;28;20170;-19
2022/03/10 00:46:03;;;;;;;3.33;2.23;;;15.20;46.20;;;;;;5094893;28;20182;-19
2022/03/10 00:48:28;;;;;;;2.83;2.47;;;15.20;46.20;;;;;;5095205;28;20194;-19
2022/03/10 00:50:54;;;;;;;2.50;2.30;;;15.20;46.20;;;;;;5094771;28;20571;-19
2022/03/10 00:53:20;;;;;;;2.80;2.17;;;15.20;46.20;;;;;;5094782;28;20181;-19
2022/03/10 00:55:46;;;;;;;2.90;2.40;;;15.20;46.20;;;;;;5094095;28;20220;-19
2022/03/10 00:58:12;;;;;;;3.33;2.20;;;15.20;46.20;;;;;;5094689;28;20235;-19
2022/03/10 01:00:38;;;;;;;2.67;2.40;;;15.10;46.20;;;;;;5094908;28;20179;-21
2022/03/10 01:03:07;;;;;;;2.60;2.10;;;15.10;46.30;;;;;;5094423;28;20680;-21
2022/03/10 01:05:33;;;;;;;2.70;2.40;;;15.10;46.30;;;;;;5095031;28;20174;-21
2022/03/10 01:07:59;;;;;;;2.80;2.40;;;15.10;46.30;;;;;;5096035;28;20167;-19
2022/03/10 01:10:25;;;;;;;2.73;2.13;;;15.10;46.30;;;;;;5095386;28;20215;-20
2022/03/10 01:12:52;;;;;;;2.53;2.07;;;15.10;46.30;;;;;;5094349;28;20171;-19
2022/03/10 01:15:21;;;;;;;2.67;2.13;;;15.10;46.40;;;;;;5094599;28;20171;-20
2022/03/10 01:17:47;;;;;;;2.20;2.00;;;15.10;46.40;;;;;;5092075;28;20202;-20
2022/03/10 01:20:13;;;;;;;2.40;2.20;;;15.10;46.40;;;;;;5093670;28;20168;-19
2022/03/10 01:22:39;;;;;;;2.10;1.90;;;15.10;46.50;;;;;;5092433;28;20257;-19
2022/03/10 01:25:07;;;;;;;3.00;2.10;;;15.10;46.50;;;;;;5092980;28;20182;-19
2022/03/10 01:27:33;;;;;;;2.03;1.83;;;15.10;46.50;;;;;;5094587;28;20458;-22
2022/03/10 01:29:59;;;;;;;1.87;1.67;;;15.10;46.50;;;;;;5093849;28;20606;-19
2022/03/10 01:32:25;;;;;;;3.37;2.00;;;15.10;46.50;;;;;;5094407;28;20399;-22
2022/03/10 01:34:52;;;;;;;2.47;2.20;;;15.10;46.50;;;;;;5094048;28;20171;-19
2022/03/10 01:37:18;;;;;;;2.90;1.97;;;15.10;46.50;;;;;;5094735;28;20572;-20
2022/03/10 01:39:44;;;;;;;2.07;1.70;;;15.10;46.60;;;;;;5095183;28;20178;-21
2022/03/10 01:42:11;;;;;;;2.60;2.10;;;15.10;46.60;;;;;;5093609;28;20439;-22
2022/03/10 01:44:36;;;;;;;1.80;1.70;;;15.00;46.60;;;;;;5094454;28;20195;-19
2022/03/10 01:47:03;;;;;;;2.80;2.17;;;15.00;46.60;;;;;;5095779;28;20461;-19
2022/03/10 01:49:29;;;;;;;2.53;2.00;;;15.10;46.60;;;;;;5094562;28;20202;-22
2022/03/10 01:51:55;;;;;;;2.10;1.90;;;15.00;46.60;;;;;;5093844;28;20171;-21
2022/03/10 01:54:21;;;;;;;2.10;1.90;;;15.00;46.70;;;;;;5095604;28;20623;-19
2022/03/10 01:56:48;;;;;;;2.60;2.00;;;15.00;46.70;;;;;;5095236;28;20163;-19
2022/03/10 01:59:14;;;;;;;2.60;2.10;;;15.00;46.70;;;;;;5094246;28;20403;-20
2022/03/10 02:01:40;;;;;;;2.27;2.00;;;15.00;46.70;;;;;;5094269;28;20175;-21
2022/03/10 02:04:06;;;;;;;2.67;2.10;;;15.00;46.70;;;;;;5094473;28;20234;-20
2022/03/10 02:06:32;;;;;;;2.07;1.80;;;15.00;46.70;;;;;;5096269;28;20175;-20
2022/03/10 02:11:43;;;;;;;2.03;1.83;;;15.00;46.70;;;;;;5098370;28;20233;-20
2022/03/10 02:19:37;;;;;;;1.90;1.80;;;15.00;46.80;;;;;;5098794;28;20477;-21
2022/03/10 02:22:08;;;;;;;2.00;1.80;;;15.00;46.80;;;;;;5098022;28;20178;-20
2022/03/10 02:24:36;;;;;;;2.60;1.63;;;14.90;46.80;;;;;;5098610;28;20203;-18
2022/03/10 02:27:19;;;;;;;2.00;1.83;;;14.90;46.80;;;;;;5098019;28;20262;-22
2022/03/10 02:29:45;;;;;;;2.10;1.90;;;14.90;46.80;;;;;;5097879;28;20206;-19
2022/03/10 02:32:11;;;;;;;2.43;1.90;;;14.90;46.90;;;;;;5097375;28;20167;-20
2022/03/10 02:34:38;;;;;;;1.80;1.70;;;14.90;46.90;;;;;;5096778;28;20174;-19
2022/03/10 02:37:04;;;;;;;2.20;2.00;;;14.90;46.90;;;;;;5086817;28;20172;-20
2022/03/10 02:39:30;;;;;;;1.97;1.77;;;14.90;46.90;;;;;;5096743;28;20196;-20
2022/03/10 02:41:56;;;;;;;2.20;1.90;;;14.90;46.90;;;;;;5096919;28;20282;-19
2022/03/10 02:44:21;;;;;;;2.10;1.87;;;14.90;46.90;;;;;;5095903;28;20177;-23
2022/03/10 02:46:47;;;;;;;2.20;1.90;;;14.80;47.00;;;;;;5097932;28;20163;-22
2022/03/10 02:49:13;;;;;;;2.10;1.90;;;14.80;47.00;;;;;;5096959;28;20594;-21
2022/03/10 02:51:39;;;;;;;1.80;1.70;;;14.90;47.00;;;;;;5097533;28;20165;-19
2022/03/10 02:54:05;;;;;;;2.10;1.90;;;14.80;47.00;;;;;;5097185;28;20194;-21
2022/03/10 02:56:31;;;;;;;2.43;2.23;;;14.80;47.00;;;;;;5098225;28;20195;-19
2022/03/10 02:58:56;;;;;;;1.83;1.67;;;14.80;47.00;;;;;;5098858;28;20190;-19
2022/03/10 03:01:22;;;;;;;2.20;2.00;;;14.80;47.00;;;;;;5096912;28;20467;-19
2022/03/10 03:03:48;;;;;;;1.97;1.77;;;14.80;47.10;;;;;;5096864;28;20288;-19
2022/03/10 03:06:14;;;;;;;1.93;1.73;;;14.80;47.10;;;;;;5098163;28;20535;-19
2022/03/10 03:08:39;;;;;;;2.23;1.90;;;14.80;47.10;;;;;;5097369;28;20202;-21
2022/03/10 03:11:05;;;;;;;2.20;1.93;;;14.80;47.10;;;;;;5098132;28;20174;-21
2022/03/10 03:13:31;;;;;;;2.17;1.97;;;14.70;47.00;;;;;;5097412;28;20186;-19
2022/03/10 03:15:56;;;;;;;1.70;1.50;;;14.70;47.00;;;;;;5097207;28;20555;-21
2022/03/10 03:18:22;;;;;;;2.10;1.90;;;14.70;47.10;;;;;;5096830;28;20240;-19
2022/03/10 03:20:48;;;;;;;1.73;1.60;;;14.70;47.10;;;;;;5097035;28;20187;-19
2022/03/10 03:23:14;;;;;;;2.30;1.90;;;14.70;47.10;;;;;;5097599;28;20174;-22
2022/03/10 03:25:39;;;;;;;2.60;2.07;;;14.70;47.10;;;;;;5097859;28;20217;-19
2022/03/10 03:28:05;;;;;;;1.93;1.77;;;14.70;47.10;;;;;;5095863;28;20170;-20
2022/03/10 03:30:30;;;;;;;2.03;1.83;;;14.70;47.10;;;;;;5097185;28;20222;-20
2022/03/10 03:32:56;;;;;;;1.90;1.70;;;14.70;47.10;;;;;;5097383;28;20222;-19
2022/03/10 03:35:22;;;;;;;2.30;1.90;;;14.70;47.10;;;;;;5097203;28;20178;-19
2022/03/10 03:37:47;;;;;;;2.33;1.90;;;14.70;47.10;;;;;;5097596;28;20175;-20
2022/03/10 03:40:13;;;;;;;2.10;1.87;;;14.60;47.10;;;;;;5097219;28;20559;-18
2022/03/10 03:42:39;;;;;;;2.43;2.10;;;14.60;47.10;;;;;;5095251;28;20185;-22
2022/03/10 03:45:06;;;;;;;3.20;2.20;;;14.60;47.20;;;;;;5097113;28;20190;-21
2022/03/10 03:47:31;;;;;;;2.30;2.10;;;14.60;47.10;;;;;;5097224;28;20170;-21
2022/03/10 03:49:57;;;;;;;1.90;1.73;;;14.70;47.20;;;;;;5096954;28;20217;-19
2022/03/10 03:52:23;;;;;;;2.10;1.90;;;14.60;47.20;;;;;;5096268;28;20601;-19
2022/03/10 03:54:49;;;;;;;2.00;1.80;;;14.60;47.10;;;;;;5097056;28;20198;-19
2022/03/10 03:57:14;;;;;;;2.37;1.90;;;14.60;47.10;;;;;;5095895;28;20163;-21
2022/03/10 03:59:40;;;;;;;2.07;1.87;;;14.60;47.20;;;;;;5096467;28;20213;-21
2022/03/10 04:02:06;;;;;;;2.37;2.10;;;14.60;47.20;;;;;;5095444;28;20305;-19
2022/03/10 04:04:31;;;;;;;3.27;1.93;;;14.60;47.20;;;;;;5095662;28;20175;-21
2022/03/10 04:06:57;;;;;;;2.20;2.00;;;14.50;47.10;;;;;;5096271;28;20278;-20
2022/03/10 04:09:23;;;;;;;2.20;2.00;;;14.60;47.20;;;;;;5095858;28;20203;-19
2022/03/10 04:11:49;;;;;;;2.10;1.90;;;14.50;47.20;;;;;;5096330;28;20459;-19
2022/03/10 04:14:15;;;;;;;1.97;1.77;;;14.50;47.20;;;;;;5095157;28;20188;-21
2022/03/10 04:16:41;;;;;;;2.60;2.10;;;14.50;47.20;;;;;;5089634;28;20198;-19
2022/03/10 04:19:07;;;;;;;1.87;1.77;;;14.50;47.20;;;;;;5095889;28;20239;-19
2022/03/10 04:21:33;;;;;;;2.10;1.90;;;14.50;47.20;;;;;;5085945;28;20219;-18
2022/03/10 04:23:59;;;;;;;2.20;1.83;;;14.50;47.20;;;;;;5092385;28;20210;-21
2022/03/10 04:26:25;;;;;;;2.43;2.00;;;14.50;47.20;;;;;;5076999;28;20178;-22
2022/03/10 04:28:51;;;;;;;2.07;1.80;;;14.50;47.20;;;;;;5077266;28;20215;-19
2022/03/10 04:31:16;;;;;;;2.30;1.97;;;14.50;47.20;;;;;;5083677;28;20175;-21
2022/03/10 04:33:43;;;;;;;2.30;1.87;;;14.50;47.20;;;;;;5082806;28;20213;-22
2022/03/10 04:36:08;;;;;;;2.57;1.80;;;14.40;47.20;;;;;;5080745;28;20174;-19
2022/03/10 04:38:34;;;;;;;2.53;2.10;;;14.40;47.20;;;;;;5087227;28;20216;-19
2022/03/10 04:41:00;;;;;;;2.80;1.80;;;14.40;47.30;;;;;;5086717;28;20191;-21
2022/03/10 04:43:26;;;;;;;2.20;1.77;;;14.40;47.20;;;;;;5077728;28;20214;-21
2022/03/10 04:45:52;;;;;;;2.57;2.00;;;14.40;47.30;;;;;;5075942;28;20179;-22
2022/03/10 04:48:18;;;;;;;2.70;1.97;;;14.40;47.30;;;;;;5077783;28;20162;-19
2022/03/10 04:50:43;;;;;;;2.67;2.13;;;14.40;47.20;;;;;;5075966;28;20180;-22
2022/03/10 04:53:09;;;;;;;3.70;1.90;;;14.40;47.30;;;;;;5074099;28;20276;-20
2022/03/10 04:55:35;;;;;;;2.30;2.10;;;14.40;47.30;;;;;;5075265;28;20430;-20
2022/03/10 04:58:01;;;;;;;3.40;2.10;;;14.40;47.30;;;;;;5073300;28;20179;-20
2022/03/10 05:00:27;;;;;;;2.40;2.00;;;14.40;47.30;;;;;;5072872;28;20182;-19
2022/03/10 05:02:53;;;;;;;3.50;2.10;;;14.30;47.20;;;;;;5072822;28;20193;-22
2022/03/10 05:05:19;;;;;;;4.27;2.27;;;14.30;47.20;;;;;;5073183;28;20177;-19
2022/03/10 05:07:45;;;;;;;4.83;1.97;;;14.30;47.20;;;;;;5097544;28;20167;-21
2022/03/10 05:10:13;;;;;;;2.37;2.07;;;14.30;47.20;;;;;;5096920;28;20217;-18
2022/03/10 05:12:47;;;;;;;2.10;1.90;;;14.30;47.60;;;;;;5095086;28;20265;-22
2022/03/10 05:15:13;;;;;;;2.03;1.83;;;14.30;47.30;;;;;;5093044;28;20173;-21
2022/03/10 05:17:38;;;;;;;2.20;2.00;;;14.30;47.30;;;;;;5093714;28;20206;-21
2022/03/10 05:20:05;;;;;;;2.30;2.00;;;14.30;47.30;;;;;;5093524;28;20732;-21
2022/03/10 05:22:45;;;;;;;2.27;2.00;;;14.30;47.30;;;;;;5092508;28;20212;-20
2022/03/10 05:25:12;;;;;;;2.47;2.23;;;14.30;47.30;;;;;;5093311;28;20172;-19
2022/03/10 05:27:38;;;;;;;2.23;2.03;;;14.30;47.30;;;;;;5093753;28;20181;-19
2022/03/10 05:30:05;;;;;;;2.80;2.10;;;14.20;47.30;;;;;;5092810;28;20213;-19
2022/03/10 05:32:31;;;;;;;2.60;2.00;;;14.20;47.30;;;;;;5092478;28;20171;-19
2022/03/10 05:34:57;;;;;;;2.53;2.00;;;14.20;47.30;;;;;;5092815;28;20585;-21
2022/03/10 05:37:24;;;;;;;2.20;2.00;;;14.20;47.30;;;;;;5093238;28;20506;-19
2022/03/10 05:39:50;;;;;;;2.63;1.87;;;14.20;47.30;;;;;;5092630;28;20170;-21
2022/03/10 05:42:16;;;;;;;2.40;2.20;;;14.20;47.30;;;;;;5095936;28;20234;-22
2022/03/10 05:44:42;;;;;;;2.67;2.30;;;14.20;47.30;;;;;;5096913;28;20181;-19
2022/03/10 05:47:09;;;;;;;2.23;2.03;;;14.20;47.40;;;;;;5097480;28;20176;-19
2022/03/10 05:49:35;;;;;;;2.17;1.80;;;14.10;47.30;;;;;;5096782;28;20198;-19
2022/03/10 05:52:01;;;;;;;2.20;2.00;;;14.10;47.40;;;;;;5094004;28;20182;-19
2022/03/10 05:54:27;;;;;;;2.80;2.00;;;14.20;47.60;;;;;;5095867;28;20182;-21
2022/03/10 05:56:54;;;;;;;4.50;2.00;;;14.10;47.30;;;;;;5094751;28;20285;-19
2022/03/10 05:59:19;;;;;;;2.20;2.00;;;14.10;47.30;;;;;;5095377;28;20272;-20
2022/03/10 06:01:46;;;;;;;2.40;2.20;;;14.10;47.30;;;;;;5094782;28;20288;-20
2022/03/10 06:04:11;;;;;;;2.80;2.20;;;14.10;47.40;;;;;;5094337;28;20178;-23
2022/03/10 06:06:37;;;;;;;2.07;1.83;;;14.10;47.40;;;;;;5095591;28;20190;-19
2022/03/10 06:09:03;;;;;;;2.40;1.97;;;14.10;47.30;;;;;;5095670;28;20205;-21
2022/03/10 06:11:29;;;;;;;2.33;2.13;;;14.10;47.40;;;;;;5093920;28;20442;-20
2022/03/10 06:13:55;;;;;;;3.00;2.20;;;14.10;47.40;;;;;;5092598;28;20174;-20
2022/03/10 06:16:21;;;;;;;2.77;2.00;;;14.10;47.30;;;;;;5094180;28;20476;-18
2022/03/10 06:18:47;;;;;;;3.27;1.97;;;14.10;47.30;;;;;;5092762;28;20226;-19
2022/03/10 06:21:13;;;;;;;2.37;2.13;;;14.10;47.40;;;;;;5095317;28;20267;-19
2022/03/10 06:23:38;;;;;;;3.17;2.30;;;14.10;47.40;;;;;;5092884;28;20489;-20
2022/03/10 06:26:04;;;;;;;2.40;2.17;;;14.10;47.30;;;;;;5091697;28;20268;-19
2022/03/10 06:28:31;;;;;;;2.50;2.30;;;14.10;47.30;;;;;;5091329;28;20548;-21
2022/03/10 06:30:57;;;;;;;3.00;2.00;;;14.10;47.30;;;;;;5092498;28;20182;-19
2022/03/10 06:33:23;;;;;;;2.20;1.90;;;14.10;47.30;;;;;;5092184;28;20482;-21
2022/03/10 06:35:48;;;;;;;2.20;2.00;;;14.10;47.20;;;;;;5092261;28;20178;-19
2022/03/10 06:38:14;;;;;;;2.43;2.23;;;14.10;47.20;;;;;;5090295;28;20566;-21
2022/03/10 06:40:40;;;;;;;2.03;1.83;;;14.10;47.20;;;;;;5090439;28;20279;-21
2022/03/10 06:43:06;;;;;;;2.77;2.27;;;14.20;47.20;;;;;;5092995;28;20221;-17
2022/03/10 06:45:32;;;;;;;2.43;1.93;;;14.30;47.10;;;;;;5091899;28;20204;-20
2022/03/10 06:47:58;;;;;;;2.43;1.90;;;14.40;46.90;;;;;;5091293;28;20336;-20
2022/03/10 06:50:24;;;;;;;2.23;2.03;;;14.40;46.80;;;;;;5091010;28;20212;-19
2022/03/10 06:52:52;;;;;;;2.73;2.30;;;14.50;46.70;;;;;;5089173;28;20240;-19
2022/03/10 06:55:19;;;;;;;2.60;2.30;;;14.60;46.60;;;;;;5091896;28;20226;-23
2022/03/10 06:57:47;;;;;;;2.40;2.20;;;14.60;46.50;;;;;;5088713;28;20175;-19
2022/03/10 07:00:13;;;;;;;2.90;2.33;;;14.70;46.40;;;;;;5090812;28;20206;-22
2022/03/10 07:02:39;;;;;;;3.47;2.20;;;14.70;46.30;;;;;;5090978;28;20215;-19
2022/03/10 07:05:07;;;;;;;3.53;2.03;;;14.80;46.30;;;;;;5089530;28;20181;-21
2022/03/10 07:07:32;;;;;;;2.57;2.30;;;14.80;46.20;;;;;;5092063;28;20472;-22
2022/03/10 07:09:58;;;;;;;3.33;2.40;;;14.90;46.20;;;;;;5091331;28;20204;-19
2022/03/10 07:12:27;;;;;;;2.67;2.27;;;14.90;46.20;;;;;;5091423;28;20202;-23
2022/03/10 07:14:53;;;;;;;3.20;2.50;;;15.00;46.30;;;;;;5092655;28;20183;-20
2022/03/10 07:17:19;;;;;;;2.67;2.33;;;15.10;46.30;;;;;;5091405;28;20472;-21
2022/03/10 07:19:45;;;;;;;3.50;2.30;;;15.20;46.40;;;;;;5091507;28;20581;-19
2022/03/10 07:22:16;;;;;;;3.77;2.77;;;15.30;46.40;;;;;;5089689;28;20186;-20
2022/03/10 07:24:42;;;;;;;3.70;2.40;;;15.40;46.40;;;;;;5090722;28;20366;-20
2022/03/10 07:27:08;;;;;;;3.07;2.70;;;15.50;46.30;;;;;;5091621;28;20255;-21
2022/03/10 07:29:33;;;;;;;3.13;2.67;;;15.60;46.20;;;;;;5088695;28;20265;-23
2022/03/10 07:31:59;;;;;;;5.07;2.80;;;15.70;46.10;;;;;;5091013;28;20167;-19
2022/03/10 07:34:25;;;;;;;5.43;2.90;;;15.80;45.90;;;;;;5089704;28;20209;-21
2022/03/10 07:36:50;;;;;;;3.70;2.90;;;16.00;45.80;;;;;;5090778;28;20174;-22
2022/03/10 07:39:16;;;;;;;4.13;3.40;;;16.10;45.70;;;;;;5090113;28;20175;-22
2022/03/10 07:41:42;;;;;;;4.20;3.73;;;16.10;45.50;;;;;;5092161;28;20240;-21
2022/03/10 07:44:07;;;;;;;4.30;3.90;;;16.30;45.50;;;;;;5090797;28;20586;-22
2022/03/10 07:46:33;;;;;;;5.33;3.97;;;16.40;45.40;;;;;;5091454;28;20251;-20
2022/03/10 07:48:59;;;;;;;5.53;3.63;;;16.50;45.30;;;;;;5090975;28;20207;-19
2022/03/10 07:51:24;;;;;;;5.53;3.60;;;16.50;45.20;;;;;;5090996;28;20497;-24
2022/03/10 07:53:50;;;;;;;4.37;3.53;;;16.70;45.20;;;;;;5090370;28;20180;-21
2022/03/10 07:56:16;;;;;;;4.30;3.87;;;16.70;45.10;;;;;;5090474;28;20174;-19
2022/03/10 07:58:42;;;;;;;6.27;3.80;;;16.80;45.00;;;;;;5089399;28;20210;-20
2022/03/10 08:01:08;;;;;;;7.07;4.30;;;16.90;44.90;;;;;;5089164;28;20195;-20
2022/03/10 08:03:36;;;;;;;5.73;4.07;;;17.00;44.80;;;;;;5089897;28;20277;-21
2022/03/10 08:06:02;;;;;;;7.07;4.50;;;17.10;44.80;;;;;;5090140;28;20284;-19
2022/03/10 08:08:28;;;;;;;7.20;4.37;;;17.20;45.10;;;;;;5088223;28;20190;-20
2022/03/10 08:10:53;;;;;;;6.03;4.70;;;17.20;44.60;;;;;;5089524;28;20178;-19
2022/03/10 08:13:24;;;;;;;7.37;4.57;;;17.30;44.50;;;;;;5089258;28;20258;-20
2022/03/10 08:15:50;;;;;;;5.77;4.07;;;17.30;44.40;;;;;;5091486;28;20599;-23
2022/03/10 08:18:16;;;;;;;7.07;4.87;;;17.40;44.30;;;;;;5091000;28;20536;-19
2022/03/10 08:20:42;;;;;;;8.07;4.77;;;17.50;44.30;;;;;;5089284;28;20175;-20
2022/03/10 08:23:07;;;;;;;8.07;4.93;;;17.50;44.20;;;;;;5090565;28;20220;-21
2022/03/10 08:25:34;;;;;;;7.57;5.10;;;17.60;44.10;;;;;;5090140;28;20163;-21
2022/03/10 08:28:01;;;;;;;8.13;5.37;;;17.70;44.10;;;;;;5089095;28;20710;-19
2022/03/10 08:30:27;;;;;;;7.60;5.20;;;17.70;43.90;;;;;;5089632;28;20191;-21
2022/03/10 08:32:52;;;;;;;8.00;5.37;;;17.80;43.80;;;;;;5089980;28;20170;-23
2022/03/10 08:35:18;;;;;;;7.10;5.23;;;17.80;43.80;;;;;;5090579;28;20178;-19
2022/03/10 08:37:44;;;;;;;10.47;5.50;;;17.90;43.80;;;;;;5089989;28;20552;-19
2022/03/10 08:40:17;;;;;;;7.03;5.30;;;17.90;43.60;;;;;;5088827;28;20175;-21
2022/03/10 08:42:43;;;;;;;9.43;5.67;;;18.00;43.60;;;;;;5088915;28;20175;-22
2022/03/10 08:45:09;;;;;;;7.17;5.40;;;18.10;43.50;;;;;;5089177;28;20217;-24
2022/03/10 08:47:35;;;;;;;9.17;5.80;;;18.10;43.40;;;;;;5087646;28;20222;-21
2022/03/10 08:50:01;;;;;;;9.17;5.53;;;18.20;43.30;;;;;;5088830;28;20311;-20
2022/03/10 08:52:27;;;;;;;8.23;5.57;;;18.20;43.20;;;;;;5087298;28;20206;-19
2022/03/10 08:54:52;;;;;;;9.47;5.00;;;18.30;43.10;;;;;;5087711;28;20265;-20
2022/03/10 08:57:18;;;;;;;7.10;5.37;;;18.30;43.00;;;;;;5090208;28;20175;-20
2022/03/10 08:59:45;;;;;;;6.50;5.27;;;18.40;43.00;;;;;;5089583;28;20268;-20
2022/03/10 09:02:12;;;;;;;6.83;5.60;;;18.40;42.80;;;;;;5089250;28;20443;-22
2022/03/10 09:04:38;;;;;;;7.90;5.90;;;18.50;42.70;;;;;;5087842;28;20495;-20
2022/03/10 09:07:04;;;;;;;6.40;5.50;;;18.50;42.60;;;;;;5090329;28;20194;-20
2022/03/10 09:09:30;;;;;;;11.03;6.27;;;18.60;42.90;;;;;;5087727;28;20314;-20
2022/03/10 09:11:57;;;;;;;9.40;6.47;;;18.60;42.40;;;;;;5087445;28;20194;-21
2022/03/10 09:14:23;;;;;;;9.80;6.13;;;18.70;42.30;;;;;;5088036;28;20167;-21
2022/03/10 09:16:51;;;;;;;8.73;5.50;;;18.80;42.20;;;;;;5088344;28;20247;-20
2022/03/10 09:19:17;;;;;;;22.90;13.67;;;18.80;42.10;;;;;;5083325;28;20171;-22
2022/03/10 09:21:43;;;;;;;34.33;19.27;;;19.40;43.10;;;;;;5082455;28;20200;-24
2022/03/10 09:24:09;;;;;;;33.20;19.57;;;20.10;42.70;;;;;;5072318;28;20182;-24
2022/03/10 09:26:37;;;;;;;40.47;20.70;;;20.60;42.30;;;;;;5067907;28;20179;-22
2022/03/10 09:29:04;;;;;;;36.23;20.57;;;20.90;41.80;;;;;;5087323;28;20202;-25
2022/03/10 09:31:30;;;;;;;37.83;21.23;;;21.00;41.70;;;;;;5088710;28;20178;-23
2022/03/10 09:33:56;;;;;;;36.43;21.60;;;20.80;41.00;;;;;;5088302;28;20379;-26
2022/03/10 09:36:26;;;;;;;35.17;19.40;;;20.60;41.80;;;;;;5077884;28;20207;-24
2022/03/10 09:38:55;;;;;;;33.85;18.65;;;20.40;41.80;;;;;;5068311;28;20194;-24
2022/03/10 09:41:20;;;;;;;35.67;18.97;;;20.10;41.80;;;;;;5067266;28;20175;-24
2022/03/10 09:43:49;;;;;;;32.17;18.07;;;19.90;42.10;;;;;;5069336;28;20172;-24
2022/03/10 09:46:15;;;;;;;33.38;17.55;;;19.60;42.20;;;;;;5066339;28;20237;-24
2022/03/10 09:48:41;;;;;;;34.65;17.40;;;19.50;42.90;;;;;;5068532;28;20182;-26
2022/03/10 09:51:08;;;;;;;28.83;17.05;;;19.30;43.70;;;;;;5067577;28;20271;-24
2022/03/10 09:53:35;;;;;;;27.83;16.23;;;19.30;44.20;;;;;;5071124;28;20233;-25
2022/03/10 09:56:02;;;;;;;23.35;15.32;;;19.20;44.40;;;;;;5075602;28;20190;-24
2022/03/10 09:58:29;;;;;;;28.95;15.10;;;19.20;44.80;;;;;;5073948;28;20671;-25
2022/03/10 10:00:58;;;;;;;22.52;13.88;;;19.20;45.20;;;;;;5068240;28;20164;-25
2022/03/10 10:03:24;;;;;;;24.63;14.50;;;19.20;43.80;;;;;;5066384;28;20237;-23
2022/03/10 10:05:56;;;;;;;23.53;14.27;;;19.10;42.80;;;;;;5067763;28;20168;-25
2022/03/10 10:08:21;;;;;;;22.33;14.27;;;19.00;42.10;;;;;;5066985;28;20627;-24
2022/03/10 10:10:49;;;;;;;19.05;13.98;;;18.90;40.80;;;;;;5066176;28;20309;-25
2022/03/10 10:13:28;;;;;;;19.80;14.03;;;18.90;40.70;;;;;;5066557;28;20533;-24
2022/03/10 10:16:08;;;;;;;15.98;13.20;;;18.90;40.50;;;;;;5065319;28;20190;-24
2022/03/10 10:18:36;;;;;;;18.23;12.53;;;18.90;40.10;;;;;;5067226;28;20509;-25
2022/03/10 10:21:05;;;;;;;19.00;13.20;;;18.90;40.00;;;;;;5068895;28;20212;-24
2022/03/10 10:23:35;;;;;;;17.97;12.00;;;18.90;39.70;;;;;;5067979;28;20195;-23
2022/03/10 10:26:05;;;;;;;18.87;12.60;;;18.90;39.70;;;;;;5065949;28;20176;-24
2022/03/10 10:28:35;;;;;;;14.90;12.47;;;18.90;39.50;;;;;;5069853;28;20545;-25
2022/03/10 10:31:03;;;;;;;17.37;12.27;;;18.90;39.40;;;;;;5071750;28;20427;-21
2022/03/10 10:33:33;;;;;;;16.77;11.23;;;19.00;39.70;;;;;;5070448;28;20233;-24
2022/03/10 10:36:15;;;;;;;16.43;11.40;;;19.10;40.20;;;;;;5072178;28;20183;-22
2022/03/10 10:38:43;;;;;;;15.70;11.37;;;19.10;40.50;;;;;;5070351;28;20164;-25
2022/03/10 10:41:22;;;;;;;13.93;11.27;;;19.10;40.50;;;;;;5070686;28;20419;-25
2022/03/10 10:43:51;;;;;;;20.13;11.10;;;19.00;40.30;;;;;;5068638;28;20180;-22
2022/03/10 10:46:31;;;;;;;15.30;11.20;;;19.00;40.70;;;;;;5071410;28;20242;-22
2022/03/10 10:49:01;;;;;;;13.30;10.50;;;18.90;40.00;;;;;;5071276;28;20207;-24
2022/03/10 10:51:29;;;;;;;15.20;10.50;;;18.90;39.80;;;;;;5070617;28;20278;-25
2022/03/10 10:53:56;;;;;;;18.70;10.70;;;18.80;39.60;;;;;;5071126;28;20168;-22
2022/03/10 10:56:22;;;;;;;16.77;10.90;;;18.80;39.30;;;;;;5070326;28;20265;-23
2022/03/10 10:58:50;;;;;;;14.37;11.07;;;18.80;39.20;;;;;;5069191;28;20281;-24
2022/03/10 11:01:32;;;;;;;18.43;11.13;;;18.80;38.70;;;;;;5070999;28;20177;-22
2022/03/10 11:03:58;;;;;;;13.87;10.90;;;18.90;38.50;;;;;;5071440;28;20179;-26
2022/03/10 11:06:25;;;;;;;15.03;10.73;;;18.90;38.30;;;;;;5069757;28;20175;-24
2022/03/10 11:08:51;;;;;;;17.93;11.07;;;18.90;37.80;;;;;;5070474;28;20567;-22
2022/03/10 11:11:20;;;;;;;17.57;11.53;;;18.90;37.40;;;;;;5070526;28;20192;-24
2022/03/10 11:13:47;;;;;;;15.60;11.17;;;18.90;37.30;;;;;;5069545;28;20212;-24
2022/03/10 11:16:15;;;;;;;12.93;10.60;;;18.80;37.30;;;;;;5087369;28;20277;-25
2022/03/10 11:18:41;;;;;;;13.57;10.47;;;18.70;37.30;;;;;;5082469;28;20190;-25
2022/03/10 11:21:32;;;;;;;12.43;10.10;;;18.70;37.50;;;;;;5077470;28;20205;-25
2022/03/10 11:24:30;;;;;;;14.73;9.90;;;18.60;37.40;;;;;;5073569;28;20176;-25
2022/03/10 11:27:07;;;;;;;14.13;9.90;;;18.60;37.70;;;;;;5070011;28;20540;-25
2022/03/10 11:29:35;;;;;;;15.80;10.17;;;18.60;37.70;;;;;;5070396;28;20203;-24
2022/03/10 11:32:04;;;;;;;12.13;9.30;;;18.50;37.70;;;;;;5071165;28;20580;-25
2022/03/10 11:34:47;;;;;;;12.57;9.40;;;18.50;37.70;;;;;;5071323;28;20171;-23
2022/03/10 11:37:32;;;;;;;10.77;9.00;;;18.40;37.60;;;;;;5070423;28;20203;-24
2022/03/10 11:39:58;;;;;;;10.90;8.93;;;18.50;37.70;;;;;;5069204;28;20424;-21
2022/03/10 11:42:32;;;;;;;12.67;8.80;;;18.50;37.40;;;;;;5067505;28;20182;-23
2022/03/10 11:45:15;;;;;;;10.53;8.40;;;18.50;37.30;;;;;;5067022;28;20453;-23
2022/03/10 11:47:42;;;;;;;9.93;7.90;;;18.60;37.10;;;;;;5072258;28;20191;-26
2022/03/10 11:50:28;;;;;;;10.57;8.00;;;18.60;36.90;;;;;;5090391;28;20199;-25
2022/03/10 11:53:03;;;;;;;10.00;8.40;;;18.50;37.00;;;;;;5095146;28;20565;-25
2022/03/10 11:55:53;;;;;;;9.03;7.50;;;18.50;37.10;;;;;;5094885;28;20227;-24
2022/03/10 11:58:20;;;;;;;11.23;7.93;;;18.50;37.20;;;;;;5095371;28;20233;-21
2022/03/10 12:00:51;;;;;;;10.40;7.67;;;18.50;37.20;;;;;;5095569;28;20167;-21
2022/03/10 12:03:35;;;;;;;9.80;7.53;;;18.40;37.60;;;;;;5090760;28;20551;-20
2022/03/10 12:06:07;;;;;;;9.07;7.50;;;18.40;37.30;;;;;;5092048;28;20177;-24
2022/03/10 12:08:37;;;;;;;9.20;7.10;;;18.40;37.20;;;;;;5092681;28;20171;-24
2022/03/10 12:11:06;;;;;;;9.87;6.87;;;18.50;37.00;;;;;;5091967;28;20171;-22
2022/03/10 12:13:36;;;;;;;8.63;6.93;;;18.50;36.00;;;;;;5090518;28;20225;-24
2022/03/10 12:16:30;;;;;;;9.40;6.43;;;18.60;35.50;;;;;;5090450;28;20190;-24
2022/03/10 12:18:56;;;;;;;7.67;6.27;;;18.50;35.70;;;;;;5079802;28;20174;-25
2022/03/10 12:21:25;;;;;;;10.07;6.20;;;18.40;36.80;;;;;;5093966;28;20208;-21
2022/03/10 12:24:00;;;;;;;11.47;6.03;;;18.30;37.40;;;;;;5093320;28;20181;-21
2022/03/10 12:26:32;;;;;;;7.13;5.33;;;18.20;37.70;;;;;;5094442;28;20172;-24
2022/03/10 12:29:05;;;;;;;7.07;5.10;;;18.10;38.00;;;;;;5095359;28;20191;-22
2022/03/10 12:31:34;;;;;;;8.17;5.20;;;18.10;38.30;;;;;;5094929;28;20175;-23
2022/03/10 12:34:02;;;;;;;7.13;5.00;;;18.10;38.40;;;;;;5094109;28;20187;-25
2022/03/10 12:36:42;;;;;;;7.27;5.03;;;18.10;38.70;;;;;;5092352;28;20169;-22
2022/03/10 12:39:12;;;;;;;4.97;4.37;;;18.00;38.90;;;;;;5090496;28;20519;-26
2022/03/10 12:41:45;;;;;;;5.70;4.53;;;18.00;39.30;;;;;;5091898;28;20387;-22
2022/03/10 12:44:12;;;;;;;7.20;4.57;;;18.00;39.40;;;;;;5093871;28;20183;-24
2022/03/10 12:46:41;;;;;;;5.90;4.60;;;17.90;39.60;;;;;;5094053;28;20174;-26
2022/03/10 12:49:46;;;;;;;5.10;4.20;;;17.90;39.60;;;;;;5093295;28;20201;-21
2022/03/10 12:52:14;;;;;;;4.43;4.00;;;17.90;39.80;;;;;;5094402;28;20175;-23
2022/03/10 12:54:41;;;;;;;5.73;3.67;;;17.90;40.00;;;;;;5092500;28;20174;-20